Terminal Aerodrome Forecast
Issued by NWS Jackson, MS

Home | Current Version | Previous Version | Text Only | Print | Product List | Glossary On
Versions: 1 2 3 4 5 6 7 8 9 10 11 12 13 14
471
FTUS44 KJAN 230607 RRA
TAFGLH
TAF
KGLH 230607Z 2306/2406 VRB03KT P6SM VCSH SCT010 BKN035
     FM230900 16006KT P6SM VCSH BKN015
     FM231400 16008KT P6SM VCSH BKN025
     FM231800 16006KT P6SM VCTS BKN035CB
     FM232100 18010KT 5SM SHRA BR VCTS SCT020CB OVC035=

USA.gov is the U.S. government's official web portal to all federal, state and local government web resources and services.